sensor_id;sensor_type;location;lat;lon;timestamp;temperature;humidity
46378;DHT22;32083;47.360;9.650;2022-10-18T04:00:55;12.10;99.90
46378;DHT22;32083;47.360;9.650;2022-10-18T04:03:22;12.10;99.90
46378;DHT22;32083;47.360;9.650;2022-10-18T04:05:49;12.10;99.90
46378;DHT22;32083;47.360;9.650;2022-10-18T04:08:15;12.10;99.90
46378;DHT22;32083;47.360;9.650;2022-10-18T04:10:42;12.10;99.90
46378;DHT22;32083;47.360;9.650;2022-10-18T04:13:08;12.10;99.90
46378;DHT22;32083;47.360;9.650;2022-10-18T04:15:34;12.10;99.90
46378;DHT22;32083;47.360;9.650;2022-10-18T04:18:00;12.10;99.90
46378;DHT22;32083;47.360;9.650;2022-10-18T04:20:26;12.00;99.90
46378;DHT22;32083;47.360;9.650;2022-10-18T04:22:52;12.00;99.90
46378;DHT22;32083;47.360;9.650;2022-10-18T04:25:23;11.90;99.90
46378;DHT22;32083;47.360;9.650;2022-10-18T04:27:49;12.00;99.90
46378;DHT22;32083;47.360;9.650;2022-10-18T04:30:16;11.90;99.90
46378;DHT22;32083;47.360;9.650;2022-10-18T04:32:42;11.90;99.90
46378;DHT22;32083;47.360;9.650;2022-10-18T04:35:09;11.90;99.90
46378;DHT22;32083;47.360;9.650;2022-10-18T04:37:35;11.90;99.90
46378;DHT22;32083;47.360;9.650;2022-10-18T04:40:02;11.90;99.90
46378;DHT22;32083;47.360;9.650;2022-10-18T04:42:28;11.90;99.90
46378;DHT22;32083;47.360;9.650;2022-10-18T04:44:54;11.90;99.90
46378;DHT22;32083;47.360;9.650;2022-10-18T04:47:20;12.00;99.90
46378;DHT22;32083;47.360;9.650;2022-10-18T04:49:46;12.00;99.90
46378;DHT22;32083;47.360;9.650;2022-10-18T04:52:12;12.10;99.90
46378;DHT22;32083;47.360;9.650;2022-10-18T04:54:38;12.10;99.90
46378;DHT22;32083;47.360;9.650;2022-10-18T04:57:04;12.10;99.90
46378;DHT22;32083;47.360;9.650;2022-10-18T04:59:30;12.10;99.90
46378;DHT22;32083;47.360;9.650;2022-10-18T05:01:55;12.10;99.90
46378;DHT22;32083;47.360;9.650;2022-10-18T05:04:21;12.10;99.90
46378;DHT22;32083;47.360;9.650;2022-10-18T05:06:47;12.20;99.90
46378;DHT22;32083;47.360;9.650;2022-10-18T05:09:13;12.20;99.90
46378;DHT22;32083;47.360;9.650;2022-10-18T05:11:39;12.20;99.90
46378;DHT22;32083;47.360;9.650;2022-10-18T05:14:05;12.10;99.90
46378;DHT22;32083;47.360;9.650;2022-10-18T05:16:34;12.20;99.90
46378;DHT22;32083;47.360;9.650;2022-10-18T05:19:02;12.10;99.90
46378;DHT22;32083;47.360;9.650;2022-10-18T05:21:28;12.10;99.90
46378;DHT22;32083;47.360;9.650;2022-10-18T05:23:55;12.10;99.90
46378;DHT22;32083;47.360;9.650;2022-10-18T05:26:21;12.10;99.90
46378;DHT22;32083;47.360;9.650;2022-10-18T05:28:48;12.20;99.90
46378;DHT22;32083;47.360;9.650;2022-10-18T05:31:15;12.20;99.90
46378;DHT22;32083;47.360;9.650;2022-10-18T05:33:41;12.20;99.90
46378;DHT22;32083;47.360;9.650;2022-10-18T05:36:08;12.20;99.90
46378;DHT22;32083;47.360;9.650;2022-10-18T05:38:37;12.30;99.90
46378;DHT22;32083;47.360;9.650;2022-10-18T05:41:04;12.30;99.90
46378;DHT22;32083;47.360;9.650;2022-10-18T05:43:30;12.30;99.90
46378;DHT22;32083;47.360;9.650;2022-10-18T05:45:56;12.30;99.90
46378;DHT22;32083;47.360;9.650;2022-10-18T05:48:21;12.30;99.90
46378;DHT22;32083;47.360;9.650;2022-10-18T05:50:47;12.30;99.90
46378;DHT22;32083;47.360;9.650;2022-10-18T05:53:13;12.30;99.90
46378;DHT22;32083;47.360;9.650;2022-10-18T05:55:39;12.30;99.90
46378;DHT22;32083;47.360;9.650;2022-10-18T05:58:05;12.30;99.90
46378;DHT22;32083;47.360;9.650;2022-10-18T06:00:31;12.30;99.90
46378;DHT22;32083;47.360;9.650;2022-10-18T06:02:57;12.40;99.90
46378;DHT22;32083;47.360;9.650;2022-10-18T06:05:23;12.40;99.90
46378;DHT22;32083;47.360;9.650;2022-10-18T06:07:49;12.40;99.90
46378;DHT22;32083;47.360;9.650;2022-10-18T06:10:15;12.40;99.90
46378;DHT22;32083;47.360;9.650;2022-10-18T06:12:41;12.50;99.90
46378;DHT22;32083;47.360;9.650;2022-10-18T06:15:07;12.50;99.90
46378;DHT22;32083;47.360;9.650;2022-10-18T06:17:33;12.50;99.90
46378;DHT22;32083;47.360;9.650;2022-10-18T06:19:59;12.50;99.90
46378;DHT22;32083;47.360;9.650;2022-10-18T06:22:25;12.60;99.90
46378;DHT22;32083;47.360;9.650;2022-10-18T06:24:51;12.60;99.90
46378;DHT22;32083;47.360;9.650;2022-10-18T06:27:17;12.60;99.90
46378;DHT22;32083;47.360;9.650;2022-10-18T06:29:43;12.50;99.90
46378;DHT22;32083;47.360;9.650;2022-10-18T06:32:09;12.60;99.90
46378;DHT22;32083;47.360;9.650;2022-10-18T06:34:35;12.50;99.90
46378;DHT22;32083;47.360;9.650;2022-10-18T06:37:01;12.50;99.90
46378;DHT22;32083;47.360;9.650;2022-10-18T06:39:27;12.50;99.90
46378;DHT22;32083;47.360;9.650;2022-10-18T06:41:53;12.60;99.90
46378;DHT22;32083;47.360;9.650;2022-10-18T06:44:20;12.60;99.90
46378;DHT22;32083;47.360;9.650;2022-10-18T06:46:47;12.60;99.90
46378;DHT22;32083;47.360;9.650;2022-10-18T06:49:14;12.70;99.90
46378;DHT22;32083;47.360;9.650;2022-10-18T06:51:41;12.80;99.90
46378;DHT22;32083;47.360;9.650;2022-10-18T06:54:07;12.90;99.90
46378;DHT22;32083;47.360;9.650;2022-10-18T06:56:34;13.00;99.90
46378;DHT22;32083;47.360;9.650;2022-10-18T06:59:00;13.10;99.90
46378;DHT22;32083;47.360;9.650;2022-10-18T07:01:26;13.20;99.90
46378;DHT22;32083;47.360;9.650;2022-10-18T07:03:55;13.30;99.90
46378;DHT22;32083;47.360;9.650;2022-10-18T07:06:22;13.30;99.90
46378;DHT22;32083;47.360;9.650;2022-10-18T07:08:49;13.40;99.90
46378;DHT22;32083;47.360;9.650;2022-10-18T07:11:21;13.50;99.90
46378;DHT22;32083;47.360;9.650;2022-10-18T07:13:49;13.50;99.90
46378;DHT22;32083;47.360;9.650;2022-10-18T07:16:16;13.50;99.90
46378;DHT22;32083;47.360;9.650;2022-10-18T07:18:48;13.50;99.90
46378;DHT22;32083;47.360;9.650;2022-10-18T07:21:16;13.50;99.90
46378;DHT22;32083;47.360;9.650;2022-10-18T07:23:43;13.60;99.90
46378;DHT22;32083;47.360;9.650;2022-10-18T07:28:42;13.70;99.90
46378;DHT22;32083;47.360;9.650;2022-10-18T07:31:10;14.00;99.90
46378;DHT22;32083;47.360;9.650;2022-10-18T07:33:36;14.20;99.90
46378;DHT22;32083;47.360;9.650;2022-10-18T07:36:07;14.30;99.90
46378;DHT22;32083;47.360;9.650;2022-10-18T07:38:34;14.30;99.90
46378;DHT22;32083;47.360;9.650;2022-10-18T07:41:02;14.30;99.90
46378;DHT22;32083;47.360;9.650;2022-10-18T07:43:29;14.30;99.90
46378;DHT22;32083;47.360;9.650;2022-10-18T07:45:58;14.30;99.90
46378;DHT22;32083;47.360;9.650;2022-10-18T07:48:24;14.30;99.90
46378;DHT22;32083;47.360;9.650;2022-10-18T07:50:50;14.30;99.90
46378;DHT22;32083;47.360;9.650;2022-10-18T07:53:16;14.30;99.90
46378;DHT22;32083;47.360;9.650;2022-10-18T07:55:42;14.20;99.90
46378;DHT22;32083;47.360;9.650;2022-10-18T07:58:09;14.30;99.90
46378;DHT22;32083;47.360;9.650;2022-10-18T08:00:36;14.30;99.90
46378;DHT22;32083;47.360;9.650;2022-10-18T08:03:02;14.30;99.90
46378;DHT22;32083;47.360;9.650;2022-10-18T08:05:28;14.40;99.90
46378;DHT22;32083;47.360;9.650;2022-10-18T08:07:54;14.30;99.90
46378;DHT22;32083;47.360;9.650;2022-10-18T08:10:21;14.40;99.90
46378;DHT22;32083;47.360;9.650;2022-10-18T08:12:49;14.40;99.90
46378;DHT22;32083;47.360;9.650;2022-10-18T08:15:16;14.40;99.90
46378;DHT22;32083;47.360;9.650;2022-10-18T08:17:42;14.50;99.90
46378;DHT22;32083;47.360;9.650;2022-10-18T08:20:10;14.40;99.90
46378;DHT22;32083;47.360;9.650;2022-10-18T08:22:36;14.40;99.90
46378;DHT22;32083;47.360;9.650;2022-10-18T08:25:03;14.50;99.90
46378;DHT22;32083;47.360;9.650;2022-10-18T08:27:29;14.50;99.90
46378;DHT22;32083;47.360;9.650;2022-10-18T08:29:55;14.50;99.90
46378;DHT22;32083;47.360;9.650;2022-10-18T08:32:21;14.50;99.90
46378;DHT22;32083;47.360;9.650;2022-10-18T08:34:47;14.50;99.90
46378;DHT22;32083;47.360;9.650;2022-10-18T08:37:13;14.60;99.90
46378;DHT22;32083;47.360;9.650;2022-10-18T08:39:39;14.70;99.90
46378;DHT22;32083;47.360;9.650;2022-10-18T08:45:10;15.00;99.90
46378;DHT22;32083;47.360;9.650;2022-10-18T08:47:44;15.10;99.90
46378;DHT22;32083;47.360;9.650;2022-10-18T08:50:14;15.20;99.90
46378;DHT22;32083;47.360;9.650;2022-10-18T08:53:05;15.30;99.90
46378;DHT22;32083;47.360;9.650;2022-10-18T08:55:41;15.40;99.90
46378;DHT22;32083;47.360;9.650;2022-10-18T08:58:22;15.50;99.90
46378;DHT22;32083;47.360;9.650;2022-10-18T09:01:11;15.60;99.90
46378;DHT22;32083;47.360;9.650;2022-10-18T09:18:30;15.80;99.80
46378;DHT22;32083;47.360;9.650;2022-10-18T09:21:04;15.90;99.60
46378;DHT22;32083;47.360;9.650;2022-10-18T09:23:47;16.00;99.60
46378;DHT22;32083;47.360;9.650;2022-10-18T09:26:22;16.10;98.90
46378;DHT22;32083;47.360;9.650;2022-10-18T09:31:55;16.20;98.90
46378;DHT22;32083;47.360;9.650;2022-10-18T09:36:55;16.40;98.20
46378;DHT22;32083;47.360;9.650;2022-10-18T09:39:34;16.50;98.50
46378;DHT22;32083;47.360;9.650;2022-10-18T09:44:37;16.50;98.40
46378;DHT22;32083;47.360;9.650;2022-10-18T09:47:15;16.50;97.70
46378;DHT22;32083;47.360;9.650;2022-10-18T09:50:02;16.60;98.10
46378;DHT22;32083;47.360;9.650;2022-10-18T09:52:36;16.70;97.20
46378;DHT22;32083;47.360;9.650;2022-10-18T09:55:22;16.80;98.20
46378;DHT22;32083;47.360;9.650;2022-10-18T09:57:54;16.80;97.90
46378;DHT22;32083;47.360;9.650;2022-10-18T10:00:25;16.90;98.20
46378;DHT22;32083;47.360;9.650;2022-10-18T10:02:57;16.90;97.80
46378;DHT22;32083;47.360;9.650;2022-10-18T10:05:25;17.00;96.90
46378;DHT22;32083;47.360;9.650;2022-10-18T10:07:56;17.10;97.20
46378;DHT22;32083;47.360;9.650;2022-10-18T10:10:28;17.20;97.20
46378;DHT22;32083;47.360;9.650;2022-10-18T10:13:05;17.20;95.90
46378;DHT22;32083;47.360;9.650;2022-10-18T10:15:32;17.30;96.40
46378;DHT22;32083;47.360;9.650;2022-10-18T10:18:33;17.40;96.30
46378;DHT22;32083;47.360;9.650;2022-10-18T10:20:59;17.50;96.40
46378;DHT22;32083;47.360;9.650;2022-10-18T10:23:36;17.50;95.50
46378;DHT22;32083;47.360;9.650;2022-10-18T10:26:17;17.50;95.90
46378;DHT22;32083;47.360;9.650;2022-10-18T10:28:45;17.60;95.80
46378;DHT22;32083;47.360;9.650;2022-10-18T10:36:50;17.80;95.60
46378;DHT22;32083;47.360;9.650;2022-10-18T10:39:18;17.80;93.40
46378;DHT22;32083;47.360;9.650;2022-10-18T10:41:56;17.90;94.00
46378;DHT22;32083;47.360;9.650;2022-10-18T10:44:24;17.90;93.60
46378;DHT22;32083;47.360;9.650;2022-10-18T10:46:51;17.90;93.80
46378;DHT22;32083;47.360;9.650;2022-10-18T10:49:28;18.00;95.20
46378;DHT22;32083;47.360;9.650;2022-10-18T10:52:01;18.10;94.60
46378;DHT22;32083;47.360;9.650;2022-10-18T10:54:29;18.20;94.80
46378;DHT22;32083;47.360;9.650;2022-10-18T10:57:21;18.40;94.90
46378;DHT22;32083;47.360;9.650;2022-10-18T10:59:48;18.50;94.80
46378;DHT22;32083;47.360;9.650;2022-10-18T11:04:43;18.80;92.70
46378;DHT22;32083;47.360;9.650;2022-10-18T11:17:41;19.10;93.30
46378;DHT22;32083;47.360;9.650;2022-10-18T11:22:56;19.20;92.80
46378;DHT22;32083;47.360;9.650;2022-10-18T11:25:39;19.30;92.60
46378;DHT22;32083;47.360;9.650;2022-10-18T11:28:20;19.40;92.80
46378;DHT22;32083;47.360;9.650;2022-10-18T11:31:06;19.50;91.60
46378;DHT22;32083;47.360;9.650;2022-10-18T11:36:06;19.50;91.70
46378;DHT22;32083;47.360;9.650;2022-10-18T11:38:50;19.50;91.60
46378;DHT22;32083;47.360;9.650;2022-10-18T11:44:02;19.70;91.00
46378;DHT22;32083;47.360;9.650;2022-10-18T11:52:03;19.80;91.50
46378;DHT22;32083;47.360;9.650;2022-10-18T11:57:17;20.10;91.80
46378;DHT22;32083;47.360;9.650;2022-10-18T12:05:13;20.40;91.30
46378;DHT22;32083;47.360;9.650;2022-10-18T12:07:46;20.50;91.90
46378;DHT22;32083;47.360;9.650;2022-10-18T12:10:16;20.50;92.40
46378;DHT22;32083;47.360;9.650;2022-10-18T12:12:55;20.60;92.20
46378;DHT22;32083;47.360;9.650;2022-10-18T12:15:25;20.60;91.60
46378;DHT22;32083;47.360;9.650;2022-10-18T12:18:04;20.60;92.40
46378;DHT22;32083;47.360;9.650;2022-10-18T12:20:43;20.70;92.70
46378;DHT22;32083;47.360;9.650;2022-10-18T12:23:17;20.70;92.30
46378;DHT22;32083;47.360;9.650;2022-10-18T12:25:48;20.70;92.40
46378;DHT22;32083;47.360;9.650;2022-10-18T12:31:13;20.80;92.50
46378;DHT22;32083;47.360;9.650;2022-10-18T12:33:45;20.80;91.70
46378;DHT22;32083;47.360;9.650;2022-10-18T12:39:15;21.00;91.40
46378;DHT22;32083;47.360;9.650;2022-10-18T12:41:46;21.10;91.30
46378;DHT22;32083;47.360;9.650;2022-10-18T12:46:52;21.20;91.80
46378;DHT22;32083;47.360;9.650;2022-10-18T12:49:39;21.30;91.90
46378;DHT22;32083;47.360;9.650;2022-10-18T12:52:25;21.30;92.20
46378;DHT22;32083;47.360;9.650;2022-10-18T13:05:54;21.30;91.30
46378;DHT22;32083;47.360;9.650;2022-10-18T13:13:52;21.40;91.40
46378;DHT22;32083;47.360;9.650;2022-10-18T13:19:51;21.30;91.70
46378;DHT22;32083;47.360;9.650;2022-10-18T13:22:43;21.30;91.90
46378;DHT22;32083;47.360;9.650;2022-10-18T13:25:33;21.20;92.00
46378;DHT22;32083;47.360;9.650;2022-10-18T13:28:21;21.20;92.30
46378;DHT22;32083;47.360;9.650;2022-10-18T13:33:43;21.20;92.50
46378;DHT22;32083;47.360;9.650;2022-10-18T13:41:26;21.00;93.20
46378;DHT22;32083;47.360;9.650;2022-10-18T13:48:52;20.80;93.60
46378;DHT22;32083;47.360;9.650;2022-10-18T14:02:14;21.10;94.00
46378;DHT22;32083;47.360;9.650;2022-10-18T14:07:30;21.30;94.20
46378;DHT22;32083;47.360;9.650;2022-10-18T14:09:58;21.30;93.70
46378;DHT22;32083;47.360;9.650;2022-10-18T14:12:37;21.40;93.20
46378;DHT22;32083;47.360;9.650;2022-10-18T14:15:11;21.40;92.50
46378;DHT22;32083;47.360;9.650;2022-10-18T14:17:45;21.40;92.80
46378;DHT22;32083;47.360;9.650;2022-10-18T14:20:19;21.40;92.60
46378;DHT22;32083;47.360;9.650;2022-10-18T14:25:31;21.20;92.60
46378;DHT22;32083;47.360;9.650;2022-10-18T14:28:19;21.30;92.60
46378;DHT22;32083;47.360;9.650;2022-10-18T14:31:01;21.40;92.40
46378;DHT22;32083;47.360;9.650;2022-10-18T14:33:43;21.40;92.40
46378;DHT22;32083;47.360;9.650;2022-10-18T14:38:55;21.50;92.30
46378;DHT22;32083;47.360;9.650;2022-10-18T14:41:30;21.50;91.70
46378;DHT22;32083;47.360;9.650;2022-10-18T14:44:27;21.40;92.70
46378;DHT22;32083;47.360;9.650;2022-10-18T14:47:23;21.50;92.50
46378;DHT22;32083;47.360;9.650;2022-10-18T14:49:50;21.50;92.40
46378;DHT22;32083;47.360;9.650;2022-10-18T14:52:22;21.50;92.40
46378;DHT22;32083;47.360;9.650;2022-10-18T14:54:50;21.50;92.70
46378;DHT22;32083;47.360;9.650;2022-10-18T14:57:23;21.40;92.00
46378;DHT22;32083;47.360;9.650;2022-10-18T14:59:53;21.40;91.90
46378;DHT22;32083;47.360;9.650;2022-10-18T15:02:24;21.40;91.80
46378;DHT22;32083;47.360;9.650;2022-10-18T15:05:18;21.30;91.80
46378;DHT22;32083;47.360;9.650;2022-10-18T15:07:45;21.30;92.00
46378;DHT22;32083;47.360;9.650;2022-10-18T15:10:16;21.30;92.30
46378;DHT22;32083;47.360;9.650;2022-10-18T15:12:44;21.30;92.10
46378;DHT22;32083;47.360;9.650;2022-10-18T15:15:24;21.20;92.40
46378;DHT22;32083;47.360;9.650;2022-10-18T15:17:52;21.20;92.50
46378;DHT22;32083;47.360;9.650;2022-10-18T15:22:51;21.30;92.20
46378;DHT22;32083;47.360;9.650;2022-10-18T15:27:54;21.30;92.10
46378;DHT22;32083;47.360;9.650;2022-10-18T15:30:38;21.30;92.10
46378;DHT22;32083;47.360;9.650;2022-10-18T15:33:07;21.20;92.60
46378;DHT22;32083;47.360;9.650;2022-10-18T15:35:44;21.20;92.90
46378;DHT22;32083;47.360;9.650;2022-10-18T15:38:25;21.10;92.90
46378;DHT22;32083;47.360;9.650;2022-10-18T15:40:52;21.10;92.80
46378;DHT22;32083;47.360;9.650;2022-10-18T15:45:57;21.00;92.90
46378;DHT22;32083;47.360;9.650;2022-10-18T15:48:35;20.90;93.10
46378;DHT22;32083;47.360;9.650;2022-10-18T15:51:07;20.90;93.00
46378;DHT22;32083;47.360;9.650;2022-10-18T15:53:53;20.90;93.40
46378;DHT22;32083;47.360;9.650;2022-10-18T15:56:38;20.90;93.50
46378;DHT22;32083;47.360;9.650;2022-10-18T15:59:23;20.80;93.70
46378;DHT22;32083;47.360;9.650;2022-10-18T16:01:50;20.70;93.90
46378;DHT22;32083;47.360;9.650;2022-10-18T16:04:42;20.70;93.80
46378;DHT22;32083;47.360;9.650;2022-10-18T16:07:10;20.60;94.50
46378;DHT22;32083;47.360;9.650;2022-10-18T16:09:36;20.60;94.00
46378;DHT22;32083;47.360;9.650;2022-10-18T16:12:03;20.60;94.10
46378;DHT22;32083;47.360;9.650;2022-10-18T16:14:29;20.50;94.30
46378;DHT22;32083;47.360;9.650;2022-10-18T16:16:58;20.50;94.60
46378;DHT22;32083;47.360;9.650;2022-10-18T16:19:25;20.50;95.00
46378;DHT22;32083;47.360;9.650;2022-10-18T16:21:52;20.40;95.30
46378;DHT22;32083;47.360;9.650;2022-10-18T16:24:19;20.40;95.30
46378;DHT22;32083;47.360;9.650;2022-10-18T16:26:46;20.30;95.40
46378;DHT22;32083;47.360;9.650;2022-10-18T16:29:17;20.30;95.60
46378;DHT22;32083;47.360;9.650;2022-10-18T16:31:46;20.20;95.50
46378;DHT22;32083;47.360;9.650;2022-10-18T16:34:13;20.10;95.90
46378;DHT22;32083;47.360;9.650;2022-10-18T16:36:40;20.10;95.80
46378;DHT22;32083;47.360;9.650;2022-10-18T16:39:11;20.00;96.20
46378;DHT22;32083;47.360;9.650;2022-10-18T16:41:38;19.90;96.30
46378;DHT22;32083;47.360;9.650;2022-10-18T16:44:04;19.80;96.40
46378;DHT22;32083;47.360;9.650;2022-10-18T16:46:31;19.80;96.70
46378;DHT22;32083;47.360;9.650;2022-10-18T16:48:58;19.70;97.00
46378;DHT22;32083;47.360;9.650;2022-10-18T16:51:24;19.70;97.30
46378;DHT22;32083;47.360;9.650;2022-10-18T16:53:51;19.60;97.70
46378;DHT22;32083;47.360;9.650;2022-10-18T16:56:27;19.50;97.80
46378;DHT22;32083;47.360;9.650;2022-10-18T16:58:55;19.50;97.90
46378;DHT22;32083;47.360;9.650;2022-10-18T17:01:22;19.40;98.10
46378;DHT22;32083;47.360;9.650;2022-10-18T17:03:49;19.30;97.90
46378;DHT22;32083;47.360;9.650;2022-10-18T17:06:25;19.20;97.80
46378;DHT22;32083;47.360;9.650;2022-10-18T17:08:52;19.20;98.20
46378;DHT22;32083;47.360;9.650;2022-10-18T17:11:23;19.10;98.60
46378;DHT22;32083;47.360;9.650;2022-10-18T17:13:50;19.00;98.40
46378;DHT22;32083;47.360;9.650;2022-10-18T17:16:24;18.90;98.70
46378;DHT22;32083;47.360;9.650;2022-10-18T17:18:54;18.80;98.60
46378;DHT22;32083;47.360;9.650;2022-10-18T17:21:20;18.80;98.80
46378;DHT22;32083;47.360;9.650;2022-10-18T17:23:47;18.70;99.20
46378;DHT22;32083;47.360;9.650;2022-10-18T17:26:18;18.70;99.50
46378;DHT22;32083;47.360;9.650;2022-10-18T17:28:45;18.60;99.60
46378;DHT22;32083;47.360;9.650;2022-10-18T17:31:14;18.60;99.70
46378;DHT22;32083;47.360;9.650;2022-10-18T17:33:40;18.50;99.40
46378;DHT22;32083;47.360;9.650;2022-10-18T17:36:06;18.40;99.20
46378;DHT22;32083;47.360;9.650;2022-10-18T17:38:32;18.40;99.20
46378;DHT22;32083;47.360;9.650;2022-10-18T17:40:58;18.30;99.30
46378;DHT22;32083;47.360;9.650;2022-10-18T17:43:24;18.30;99.50
46378;DHT22;32083;47.360;9.650;2022-10-18T17:45:54;18.20;99.80
46378;DHT22;32083;47.360;9.650;2022-10-18T17:48:20;18.10;99.40
46378;DHT22;32083;47.360;9.650;2022-10-18T17:50:46;18.10;99.70
46378;DHT22;32083;47.360;9.650;2022-10-18T17:53:13;18.00;99.90
46378;DHT22;32083;47.360;9.650;2022-10-18T17:55:39;18.00;99.60
46378;DHT22;32083;47.360;9.650;2022-10-18T17:58:05;18.00;99.90
46378;DHT22;32083;47.360;9.650;2022-10-18T18:00:31;17.90;99.80
46378;DHT22;32083;47.360;9.650;2022-10-18T18:02:58;17.90;99.90
46378;DHT22;32083;47.360;9.650;2022-10-18T18:05:25;17.80;99.90
46378;DHT22;32083;47.360;9.650;2022-10-18T18:07:54;17.80;99.90
46378;DHT22;32083;47.360;9.650;2022-10-18T18:10:20;17.70;99.90
46378;DHT22;32083;47.360;9.650;2022-10-18T18:12:46;17.70;99.90
46378;DHT22;32083;47.360;9.650;2022-10-18T18:15:12;17.70;99.90
46378;DHT22;32083;47.360;9.650;2022-10-18T18:17:38;17.60;99.90
46378;DHT22;32083;47.360;9.650;2022-10-18T18:20:05;17.60;99.90
46378;DHT22;32083;47.360;9.650;2022-10-18T18:22:32;17.50;99.90
46378;DHT22;32083;47.360;9.650;2022-10-18T18:24:58;17.50;99.90
46378;DHT22;32083;47.360;9.650;2022-10-18T18:27:24;17.40;99.90
46378;DHT22;32083;47.360;9.650;2022-10-18T18:29:50;17.40;99.90
46378;DHT22;32083;47.360;9.650;2022-10-18T18:32:16;17.30;99.90
46378;DHT22;32083;47.360;9.650;2022-10-18T18:34:42;17.20;99.90
46378;DHT22;32083;47.360;9.650;2022-10-18T18:37:08;17.20;99.90
46378;DHT22;32083;47.360;9.650;2022-10-18T18:39:35;17.20;99.90
46378;DHT22;32083;47.360;9.650;2022-10-18T18:42:03;17.10;99.90
46378;DHT22;32083;47.360;9.650;2022-10-18T18:44:30;17.10;99.90
46378;DHT22;32083;47.360;9.650;2022-10-18T18:46:56;17.10;99.90
46378;DHT22;32083;47.360;9.650;2022-10-18T18:49:23;17.00;99.90
46378;DHT22;32083;47.360;9.650;2022-10-18T18:51:52;17.00;99.90
46378;DHT22;32083;47.360;9.650;2022-10-18T18:54:18;16.90;99.90
46378;DHT22;32083;47.360;9.650;2022-10-18T18:56:44;16.80;99.90
46378;DHT22;32083;47.360;9.650;2022-10-18T18:59:14;16.80;99.90
46378;DHT22;32083;47.360;9.650;2022-10-18T19:01:40;16.70;99.90
46378;DHT22;32083;47.360;9.650;2022-10-18T19:04:07;16.70;99.90
46378;DHT22;32083;47.360;9.650;2022-10-18T19:06:41;16.70;99.90
46378;DHT22;32083;47.360;9.650;2022-10-18T19:09:11;16.70;99.90
46378;DHT22;32083;47.360;9.650;2022-10-18T19:11:43;16.70;99.90
46378;DHT22;32083;47.360;9.650;2022-10-18T19:14:11;16.60;99.90
46378;DHT22;32083;47.360;9.650;2022-10-18T19:16:45;16.70;99.90
46378;DHT22;32083;47.360;9.650;2022-10-18T19:19:16;16.60;99.90
46378;DHT22;32083;47.360;9.650;2022-10-18T19:21:48;16.70;99.90
46378;DHT22;32083;47.360;9.650;2022-10-18T19:24:16;16.60;99.90
46378;DHT22;32083;47.360;9.650;2022-10-18T19:31:50;16.50;99.90
46378;DHT22;32083;47.360;9.650;2022-10-18T19:34:16;16.40;99.90
46378;DHT22;32083;47.360;9.650;2022-10-18T19:36:45;16.40;99.90
46378;DHT22;32083;47.360;9.650;2022-10-18T19:39:22;16.40;99.90
46378;DHT22;32083;47.360;9.650;2022-10-18T19:41:51;16.30;99.90
46378;DHT22;32083;47.360;9.650;2022-10-18T19:44:18;16.20;99.90
46378;DHT22;32083;47.360;9.650;2022-10-18T19:46:45;16.20;99.90
46378;DHT22;32083;47.360;9.650;2022-10-18T19:49:11;16.10;99.90
46378;DHT22;32083;47.360;9.650;2022-10-18T19:51:37;16.20;99.90
46378;DHT22;32083;47.360;9.650;2022-10-18T19:54:03;16.10;99.90
46378;DHT22;32083;47.360;9.650;2022-10-18T19:56:30;16.00;99.90
46378;DHT22;32083;47.360;9.650;2022-10-18T19:58:57;16.00;99.90
46378;DHT22;32083;47.360;9.650;2022-10-18T20:01:25;15.90;99.90
46378;DHT22;32083;47.360;9.650;2022-10-18T20:03:51;15.90;99.90
46378;DHT22;32083;47.360;9.650;2022-10-18T20:06:18;15.90;99.90
46378;DHT22;32083;47.360;9.650;2022-10-18T20:08:44;15.80;99.90
46378;DHT22;32083;47.360;9.650;2022-10-18T20:11:14;15.80;99.90
46378;DHT22;32083;47.360;9.650;2022-10-18T20:13:41;15.80;99.90
46378;DHT22;32083;47.360;9.650;2022-10-18T20:16:08;15.80;99.90
46378;DHT22;32083;47.360;9.650;2022-10-18T20:18:35;15.80;99.90
46378;DHT22;32083;47.360;9.650;2022-10-18T20:21:05;15.70;99.90
46378;DHT22;32083;47.360;9.650;2022-10-18T20:23:34;15.70;99.90
46378;DHT22;32083;47.360;9.650;2022-10-18T20:26:11;15.60;99.90
46378;DHT22;32083;47.360;9.650;2022-10-18T20:28:37;15.50;99.90
46378;DHT22;32083;47.360;9.650;2022-10-18T20:31:06;15.40;99.90
46378;DHT22;32083;47.360;9.650;2022-10-18T20:33:33;15.30;99.90
46378;DHT22;32083;47.360;9.650;2022-10-18T20:38:33;15.40;99.90
46378;DHT22;32083;47.360;9.650;2022-10-18T20:41:10;15.30;99.90
46378;DHT22;32083;47.360;9.650;2022-10-18T20:43:36;15.30;99.90
46378;DHT22;32083;47.360;9.650;2022-10-18T20:46:04;15.20;99.90
46378;DHT22;32083;47.360;9.650;2022-10-18T20:48:31;15.20;99.90
46378;DHT22;32083;47.360;9.650;2022-10-18T20:51:09;15.20;99.90
46378;DHT22;32083;47.360;9.650;2022-10-18T20:53:38;15.20;99.90
46378;DHT22;32083;47.360;9.650;2022-10-18T20:56:06;15.20;99.90
46378;DHT22;32083;47.360;9.650;2022-10-18T20:58:32;15.20;99.90
46378;DHT22;32083;47.360;9.650;2022-10-18T21:01:20;15.20;99.90
46378;DHT22;32083;47.360;9.650;2022-10-18T21:03:48;15.20;99.90
46378;DHT22;32083;47.360;9.650;2022-10-18T21:06:17;15.10;99.90
46378;DHT22;32083;47.360;9.650;2022-10-18T21:08:44;15.10;99.90
46378;DHT22;32083;47.360;9.650;2022-10-18T21:11:11;15.10;99.90
46378;DHT22;32083;47.360;9.650;2022-10-18T21:13:37;15.00;99.90
46378;DHT22;32083;47.360;9.650;2022-10-18T21:16:05;15.00;99.90
46378;DHT22;32083;47.360;9.650;2022-10-18T21:18:34;14.90;99.90
46378;DHT22;32083;47.360;9.650;2022-10-18T21:21:18;14.90;99.90
46378;DHT22;32083;47.360;9.650;2022-10-18T21:23:44;14.90;99.90
46378;DHT22;32083;47.360;9.650;2022-10-18T21:26:14;14.80;99.90
46378;DHT22;32083;47.360;9.650;2022-10-18T21:28:40;14.80;99.90
46378;DHT22;32083;47.360;9.650;2022-10-18T21:31:13;14.80;99.90
46378;DHT22;32083;47.360;9.650;2022-10-18T21:33:40;14.80;99.90
46378;DHT22;32083;47.360;9.650;2022-10-18T21:36:07;14.80;99.90
46378;DHT22;32083;47.360;9.650;2022-10-18T21:38:33;14.80;99.90
46378;DHT22;32083;47.360;9.650;2022-10-18T21:40:59;14.80;99.90
46378;DHT22;32083;47.360;9.650;2022-10-18T21:43:25;14.80;99.90
46378;DHT22;32083;47.360;9.650;2022-10-18T21:45:58;14.70;99.90
46378;DHT22;32083;47.360;9.650;2022-10-18T21:48:28;14.70;99.90
46378;DHT22;32083;47.360;9.650;2022-10-18T21:50:54;14.60;99.90
46378;DHT22;32083;47.360;9.650;2022-10-18T21:53:20;14.60;99.90
46378;DHT22;32083;47.360;9.650;2022-10-18T21:55:46;14.60;99.90
46378;DHT22;32083;47.360;9.650;2022-10-18T21:58:13;14.60;99.90
46378;DHT22;32083;47.360;9.650;2022-10-18T22:00:39;14.60;99.90
46378;DHT22;32083;47.360;9.650;2022-10-18T22:03:09;14.60;99.90
46378;DHT22;32083;47.360;9.650;2022-10-18T22:05:35;14.60;99.90
46378;DHT22;32083;47.360;9.650;2022-10-18T22:08:01;14.50;99.90
46378;DHT22;32083;47.360;9.650;2022-10-18T22:10:28;14.50;99.90